• Join FlightAware (Why Join?)
  • Login
  • US Flag 
01:20AM EDT


 

Airport Tracker/Info


-or-


 

Live Flight TrackerFlight Track Log ✈ CCA4334 ✈ 24-Apr-2013 ✈ ZGGG / CAN - ZUUU / CTU

Flight Track Log - Related Links

Times and Time Zones

All times are in EDT time to prevent confusion due to time zone crossing. See the CCA4334 flight status page for this flight to view local times or setup timezone preferences in your user account.

Time Position Orientation Groundspeed Altitude Reporting Facility
EDT Latitude Longitude Course Direction KTS MPH feet Rate Location/Type
06:51AM 23.6865 112.9518 313° West  Level Estimated
06:52AM 23.7452 112.8823 313° West  Level Estimated
06:53AM 23.8039 112.8126 313° West  Level Estimated
06:54AM 23.8625 112.7429 313° West  Level Estimated
06:55AM 23.9211 112.6731 313° West  Level Estimated
06:56AM 23.9797 112.6033 313° West  Level Estimated
06:57AM 24.0383 112.5334 313° West  Level Estimated
06:58AM 24.0968 112.4635 313° West  Level Estimated
06:59AM 24.1553 112.3934 312° West  Level Estimated
07:00AM 24.2138 112.3234 312° West  Level Estimated
07:01AM 24.2722 112.2532 312° West  Level Estimated
07:02AM 24.3306 112.1830 312° West  Level Estimated
07:03AM 24.3890 112.1127 312° West  Level Estimated
07:04AM 24.4473 112.0424 312° West  Level Estimated
07:05AM 24.5056 111.9720 312° West  Level Estimated
07:06AM 24.5639 111.9015 312° West  Level Estimated
07:07AM 24.6221 111.8310 312° West  Level Estimated
07:08AM 24.6803 111.7604 312° West  Level Estimated
07:09AM 24.7384 111.6897 312° West  Level Estimated
07:10AM 24.7966 111.6190 312° West  Level Estimated
07:11AM 24.8547 111.5482 312° West  Level Estimated
07:12AM 24.9128 111.4773 312° West  Level Estimated
07:13AM 24.9708 111.4063 312° West  Level Estimated
07:14AM 25.0288 111.3354 312° West  Level Estimated
07:15AM 25.0868 111.2643 312° West  Level Estimated
07:16AM 25.1447 111.1931 312° West  Level Estimated
07:17AM 25.2026 111.1219 312° West  Level Estimated
07:18AM 25.2605 111.0507 312° West  Level Estimated
07:19AM 25.3183 110.9793 312° West  Level Estimated
07:20AM 25.3761 110.9079 312° West  Level Estimated
07:21AM 25.4338 110.8364 312° West  Level Estimated
07:22AM 25.4916 110.7649 312° West  Level Estimated
07:23AM 25.5493 110.6933 312° West  Level Estimated
07:24AM 25.6069 110.6216 312° West  Level Estimated
07:25AM 25.6646 110.5499 312° West  Level Estimated
07:26AM 25.7221 110.4780 312° West  Level Estimated
07:27AM 25.7797 110.4061 312° West  Level Estimated
07:28AM 25.8372 110.3342 312° West  Level Estimated
07:29AM 25.8947 110.2622 312° West  Level Estimated
07:30AM 25.9521 110.1900 312° West  Level Estimated
07:31AM 26.0096 110.1179 312° West  Level Estimated
07:32AM 26.0669 110.0456 311° West  Level Estimated
07:33AM 26.1243 109.9733 311° West  Level Estimated
07:34AM 26.1816 109.9009 311° West  Level Estimated
07:35AM 26.2388 109.8285 311° West  Level Estimated
07:36AM 26.2961 109.7560 311° West  Level Estimated
07:37AM 26.3533 109.6834 311° West  Level Estimated
07:38AM 26.4104 109.6107 311° West  Level Estimated
07:39AM 26.4675 109.5379 311° West  Level Estimated
07:40AM 26.5246 109.4651 311° West  Level Estimated
07:41AM 26.5817 109.3923 311° West  Level Estimated
07:42AM 26.6387 109.3193 311° West  Level Estimated
07:43AM 26.6956 109.2463 311° West  Level Estimated
07:44AM 26.7526 109.1731 311° West  Level Estimated
07:45AM 26.8095 109.1000 311° West  Level Estimated
07:46AM 26.8663 109.0267 311° West  Level Estimated
07:47AM 26.9231 108.9534 311° West  Level Estimated
07:48AM 26.9799 108.8800 311° West  Level Estimated
07:49AM 27.0367 108.8065 311° West  Level Estimated
07:50AM 27.0934 108.7330 311° West  Level Estimated
07:51AM 27.1501 108.6593 311° West  Level Estimated
07:52AM 27.2067 108.5856 311° West  Level Estimated
07:53AM 27.2633 108.5119 311° West  Level Estimated
07:54AM 27.3198 108.4380 311° West  Level Estimated
07:55AM 27.3763 108.3641 311° West  Level Estimated
07:56AM 27.4328 108.2901 311° West  Level Estimated
07:57AM 27.4893 108.2160 311° West  Level Estimated
07:58AM 27.5457 108.1419 311° West  Level Estimated
07:59AM 27.6020 108.0677 311° West  Level Estimated
08:00AM 27.6583 107.9934 311° West  Level Estimated
08:01AM 27.7146 107.9190 311° West  Level Estimated
08:02AM 27.7709 107.8445 310° West  Level Estimated
08:03AM 27.8271 107.7700 310° West  Level Estimated
08:04AM 27.8832 107.6954 310° West  Level Estimated
08:05AM 27.9393 107.6207 310° West  Level Estimated
08:06AM 27.9954 107.5459 310° West  Level Estimated
08:07AM 28.0515 107.4711 310° West  Level Estimated
08:08AM 28.1075 107.3962 310° West  Level Estimated
08:09AM 28.1634 107.3212 310° West  Level Estimated
08:10AM 28.2193 107.2461 310° West  Level Estimated
08:11AM 28.2752 107.1709 310° West  Level Estimated
08:12AM 28.3310 107.0957 310° West  Level Estimated
08:13AM 28.3868 107.0204 310° West  Level Estimated
08:14AM 28.4426 106.9450 310° West  Level Estimated
08:15AM 28.4983 106.8695 310° West  Level Estimated
08:16AM 28.5540 106.7940 310° West  Level Estimated
08:17AM 28.6096 106.7184 310° West  Level Estimated
08:18AM 28.6652 106.6426 310° West  Level Estimated
08:19AM 28.7207 106.5668 310° West  Level Estimated
08:20AM 28.7762 106.4910 310° West  Level Estimated
08:21AM 28.8317 106.4150 310° West  Level Estimated
08:22AM 28.8871 106.3390 310° West  Level Estimated
08:23AM 28.9424 106.2629 310° West  Level Estimated
08:24AM 28.9978 106.1867 310° West  Level Estimated
08:25AM 29.0530 106.1104 310° West  Level Estimated
08:26AM 29.1083 106.0340 310° West  Level Estimated
08:27AM 29.1635 105.9576 310° West  Level Estimated
08:28AM 29.2187 105.8811 310° West  Level Estimated
08:29AM 29.2738 105.8045 310° West  Level Estimated
08:30AM 29.3288 105.7278 309° West  Level Estimated
08:31AM 29.3839 105.6510 309° West  Level Estimated
08:32AM 29.4388 105.5741 309° West  Level Estimated
08:33AM 29.4938 105.4972 309° West  Level Estimated
08:34AM 29.5487 105.4202 309° West  Level Estimated
08:35AM 29.6035 105.3431 309° West  Level Estimated
08:36AM 29.6583 105.2659 309° West  Level Estimated
08:37AM 29.7131 105.1886 309° West  Level Estimated
08:38AM 29.7678 105.1113 309° West  Level Estimated
08:39AM 29.8225 105.0338 309° West  Level Estimated
08:40AM 29.8771 104.9563 309° West  Level Estimated
08:41AM 29.9317 104.8787 309° West  Level Estimated
08:42AM 29.9862 104.8010 309° West  Level Estimated
08:43AM 30.0407 104.7232 309° West  Level Estimated